Jork Valiant — CQEY — position and weather

sailwx.info

Track history (hours):
 
Tides and Currents Weather Stations Pressure Air Temp Water Temp Dewpoint Dewpoint Depression Visibility Wind Speed Wind Dir Waves Ship Positions

Jork Valiant

Last reported at 2018-Jun-22 03:00 UTC. Time now 2018-Jun-22 03:16 UTC.
Position N 37°17' W 000°58'.

Length 159 m; draft 7.9 m.

Type: Ship (hazmat cat A). MMSI: 255805702.

Date/timePositionNaut miles runAvg speedWind from/ knotsBaromVisibWave heightAir tempDewpointWater temp
2018-Jun-22 03:00N 37°17' W 000°58'815.5
2018-Jun-22 02:30N 37°22' W 000°51'815.6
2018-Jun-22 01:59N 37°28' W 000°43'715.4
2018-Jun-22 01:30N 37°33' W 000°36'815.1
2018-Jun-22 01:00N 37°39' W 000°30'815.4
2018-Jun-22 00:30N 37°45' W 000°25'815.2
2018-Jun-22 00:00N 37°51' W 000°20'815.2
2018-Jun-21 23:30N 37°58' W 000°14'815.2
2018-Jun-21 23:00N 38°04' W 000°09'815.1
2018-Jun-21 22:30N 38°10' W 000°04'1415.1
2018-Jun-21 21:36N 38°22' E 000°06'114.9
2018-Jun-21 21:30N 38°23' E 000°07'714.8
2018-Jun-21 21:00N 38°29' E 000°12'815.0
2018-Jun-21 20:30N 38°36' E 000°17'914.7
2018-Jun-21 19:52N 38°43' E 000°24'514.2
2018-Jun-21 19:30N 38°48' E 000°21'3314.6
2018-Jun-21 17:16N 39°17' E 000°02'414.9
2018-Jun-21 17:00N 39°20' W 000°01'714.7
2018-Jun-21 16:30N 39°27' W 000°05'714.8
2018-Jun-21 16:00N 39°33' W 000°09'611.3
2018-Jun-21 15:28N 39°39' W 000°13'  
2018-Jun-18 23:54N 39°44' E 000°02'0 0.5
2018-Jun-18 23:30N 39°44' E 000°02'0 0.5
2018-Jun-18 23:00N 39°44' E 000°03'0 0.5
2018-Jun-18 22:30N 39°44' E 000°03'1 1.1
2018-Jun-18 21:58N 39°45' E 000°03'6 9.3
2018-Jun-18 21:20N 39°49' E 000°08'2115.5
2018-Jun-18 19:57N 40°05' E 000°27'3814.9
2018-Jun-18 17:25N 40°35' E 000°57'33 7.9
2018-Jun-18 13:16N 41°06' E 001°13'0 0.0
2018-Jun-18 12:59N 41°06' E 001°13'118 6.7
2018-Jun-17 19:28N 39°10' E 000°41'1015.4
2018-Jun-17 18:48N 39°01' E 000°37'515.6
2018-Jun-17 18:30N 38°56' E 000°35'815.7
2018-Jun-17 17:58N 38°48' E 000°31'915.5
2018-Jun-17 17:23N 38°40' E 000°26'615.5
2018-Jun-17 17:00N 38°35' E 000°22'815.6
2018-Jun-17 16:30N 38°29' E 000°16'815.4
2018-Jun-17 16:00N 38°23' E 000°11'815.3
2018-Jun-17 15:30N 38°16' E 000°05'715.2
2018-Jun-17 15:00N 38°10' E 000°00'815.0
2018-Jun-17 14:30N 38°03' W 000°05'714.9
2018-Jun-17 14:00N 37°57' W 000°10'815.0
2018-Jun-17 13:30N 37°51' W 000°16'714.8
2018-Jun-17 13:00N 37°45' W 000°21'714.6
2018-Jun-17 12:30N 37°39' W 000°26'714.7
2018-Jun-17 12:00N 37°33' W 000°31'815.1
2018-Jun-17 11:30N 37°27' W 000°38'714.8
2018-Jun-17 11:00N 37°23' W 000°45'714.3
2018-Jun-17 10:30N 37°18' W 000°52'714.2
2018-Jun-17 10:00N 37°13' W 000°59'814.5
2018-Jun-17 09:28N 37°08' W 001°06'19914.7
2018-Jun-16 19:54N 36°03' W 005°00'716.9
2018-Jun-16 19:30N 36°01' W 005°08'817.0
2018-Jun-16 19:00N 35°60' W 005°18'917.1
2018-Jun-16 18:30N 35°57' W 005°29'4616.4
2018-Jun-16 15:41N 35°34' W 006°18'20215.3
2018-Jun-16 02:27N 33°13' W 009°13'33513.9
2018-Jun-15 02:27N 28°46' W 013°08'714.0
2018-Jun-15 01:56N 28°39' W 013°13'10914.3
2018-Jun-14 18:19N 27°11' W 014°26'  
Track history (hours):
 
Tides and Currents Weather Stations Pressure Air Temp Water Temp Dewpoint Dewpoint Depression Visibility Wind Speed Wind Dir Waves Ship Positions

Jork Valiant

Last reported at 2018-Jun-22 03:00 UTC. Time now 2018-Jun-22 03:16 UTC.
Position N 37°17' W 000°58'.

Length 159 m; draft 7.9 m.

Type: Ship (hazmat cat A). MMSI: 255805702.

Date/timePositionNaut miles runAvg speedWind from/ knotsBaromVisibWave heightAir tempDewpointWater temp
2018-Jun-22 03:00N 37°17' W 000°58'815.5
2018-Jun-22 02:30N 37°22' W 000°51'815.6
2018-Jun-22 01:59N 37°28' W 000°43'715.4
2018-Jun-22 01:30N 37°33' W 000°36'815.1
2018-Jun-22 01:00N 37°39' W 000°30'815.4
2018-Jun-22 00:30N 37°45' W 000°25'815.2
2018-Jun-22 00:00N 37°51' W 000°20'815.2
2018-Jun-21 23:30N 37°58' W 000°14'815.2
2018-Jun-21 23:00N 38°04' W 000°09'815.1
2018-Jun-21 22:30N 38°10' W 000°04'1415.1
2018-Jun-21 21:36N 38°22' E 000°06'114.9
2018-Jun-21 21:30N 38°23' E 000°07'714.8
2018-Jun-21 21:00N 38°29' E 000°12'815.0
2018-Jun-21 20:30N 38°36' E 000°17'914.7
2018-Jun-21 19:52N 38°43' E 000°24'514.2
2018-Jun-21 19:30N 38°48' E 000°21'3314.6
2018-Jun-21 17:16N 39°17' E 000°02'414.9
2018-Jun-21 17:00N 39°20' W 000°01'714.7
2018-Jun-21 16:30N 39°27' W 000°05'714.8
2018-Jun-21 16:00N 39°33' W 000°09'611.3
2018-Jun-21 15:28N 39°39' W 000°13'  
2018-Jun-18 23:54N 39°44' E 000°02'0 0.5
2018-Jun-18 23:30N 39°44' E 000°02'0 0.5
2018-Jun-18 23:00N 39°44' E 000°03'0 0.5
2018-Jun-18 22:30N 39°44' E 000°03'1 1.1
2018-Jun-18 21:58N 39°45' E 000°03'6 9.3
2018-Jun-18 21:20N 39°49' E 000°08'2115.5
2018-Jun-18 19:57N 40°05' E 000°27'3814.9
2018-Jun-18 17:25N 40°35' E 000°57'33 7.9
2018-Jun-18 13:16N 41°06' E 001°13'0 0.0
2018-Jun-18 12:59N 41°06' E 001°13'118 6.7
2018-Jun-17 19:28N 39°10' E 000°41'1015.4
2018-Jun-17 18:48N 39°01' E 000°37'515.6
2018-Jun-17 18:30N 38°56' E 000°35'815.7
2018-Jun-17 17:58N 38°48' E 000°31'915.5
2018-Jun-17 17:23N 38°40' E 000°26'615.5
2018-Jun-17 17:00N 38°35' E 000°22'815.6
2018-Jun-17 16:30N 38°29' E 000°16'815.4
2018-Jun-17 16:00N 38°23' E 000°11'815.3
2018-Jun-17 15:30N 38°16' E 000°05'715.2
2018-Jun-17 15:00N 38°10' E 000°00'815.0
2018-Jun-17 14:30N 38°03' W 000°05'714.9
2018-Jun-17 14:00N 37°57' W 000°10'815.0
2018-Jun-17 13:30N 37°51' W 000°16'714.8
2018-Jun-17 13:00N 37°45' W 000°21'714.6
2018-Jun-17 12:30N 37°39' W 000°26'714.7
2018-Jun-17 12:00N 37°33' W 000°31'815.1
2018-Jun-17 11:30N 37°27' W 000°38'714.8
2018-Jun-17 11:00N 37°23' W 000°45'714.3
2018-Jun-17 10:30N 37°18' W 000°52'714.2
2018-Jun-17 10:00N 37°13' W 000°59'814.5
2018-Jun-17 09:28N 37°08' W 001°06'19914.7
2018-Jun-16 19:54N 36°03' W 005°00'716.9
2018-Jun-16 19:30N 36°01' W 005°08'817.0
2018-Jun-16 19:00N 35°60' W 005°18'917.1
2018-Jun-16 18:30N 35°57' W 005°29'4616.4
2018-Jun-16 15:41N 35°34' W 006°18'20215.3
2018-Jun-16 02:27N 33°13' W 009°13'33513.9
2018-Jun-15 02:27N 28°46' W 013°08'714.0
2018-Jun-15 01:56N 28°39' W 013°13'10914.3
2018-Jun-14 18:19N 27°11' W 014°26'  

Dump ship's entire track history